Sudan, Texas
Current Conditions -  °F | °C
As of 11:35 PM on Saturday 25 Oct 2014 (Local Time) from KCVN Reporting Station
Clear Clear  
Wind Chill: 54°   Ceiling: Unl
Heat Index: 54°   Visibility: 10mi
Dew Point: 39°   Wind: 8mph
Humidity: 58%   Direction: 230°SW
Pressure: 30.14"   Gusts: NA
Location:  34.07°N, 102.52°W
Report Text: KCVN 260435Z AUTO 23007KT 10SM CLR 12/04 A3014 RMK AO1
Loading
Personal Weather Stations






























Interactive Weather Map
Tropical Storm Tracking
New forecast layout! Learn more

10-Day Weather Forecast

Advertisements
Track Severe Weather on mobile